sensor_id;sensor_type;location;lat;lon;timestamp;pressure;altitude;pressure_sealevel;temperature;humidity
21960;BME280;11144;43.030;25.108;2023-02-11T00:00:22;101242.81;;;-8.62;100.00
21960;BME280;11144;43.030;25.108;2023-02-11T00:01:56;101232.06;;;-8.81;100.00
21960;BME280;11144;43.030;25.108;2023-02-11T00:03:33;101257.91;;;-8.78;100.00
21960;BME280;11144;43.030;25.108;2023-02-11T00:05:06;101257.00;;;-8.78;100.00
21960;BME280;11144;43.030;25.108;2023-02-11T00:06:40;101247.88;;;-8.75;100.00
21960;BME280;11144;43.030;25.108;2023-02-11T00:08:13;101235.53;;;-8.80;100.00
21960;BME280;11144;43.030;25.108;2023-02-11T00:09:47;101249.25;;;-8.80;100.00
21960;BME280;11144;43.030;25.108;2023-02-11T00:11:22;101256.13;;;-8.79;100.00
21960;BME280;11144;43.030;25.108;2023-02-11T00:12:56;101247.66;;;-8.78;100.00
21960;BME280;11144;43.030;25.108;2023-02-11T00:14:29;101250.78;;;-8.82;100.00
21960;BME280;11144;43.030;25.108;2023-02-11T00:16:06;101250.56;;;-8.85;100.00
21960;BME280;11144;43.030;25.108;2023-02-11T00:17:41;101245.22;;;-8.88;100.00
21960;BME280;11144;43.030;25.108;2023-02-11T00:19:14;101242.31;;;-8.81;100.00
21960;BME280;11144;43.030;25.108;2023-02-11T00:20:48;101245.22;;;-8.76;100.00
21960;BME280;11144;43.030;25.108;2023-02-11T00:22:20;101234.28;;;-8.74;100.00
21960;BME280;11144;43.030;25.108;2023-02-11T00:23:54;101239.50;;;-8.72;100.00
21960;BME280;11144;43.030;25.108;2023-02-11T00:25:27;101241.63;;;-8.67;100.00
21960;BME280;11144;43.030;25.108;2023-02-11T00:27:01;101244.41;;;-8.64;100.00
21960;BME280;11144;43.030;25.108;2023-02-11T00:28:34;101238.69;;;-8.60;100.00
21960;BME280;11144;43.030;25.108;2023-02-11T00:30:09;101243.81;;;-8.60;100.00
21960;BME280;11144;43.030;25.108;2023-02-11T00:31:42;101234.47;;;-8.59;100.00
21960;BME280;11144;43.030;25.108;2023-02-11T00:33:17;101232.91;;;-8.57;100.00
21960;BME280;11144;43.030;25.108;2023-02-11T00:34:51;101217.13;;;-8.75;100.00
21960;BME280;11144;43.030;25.108;2023-02-11T00:36:27;101237.56;;;-8.63;100.00
21960;BME280;11144;43.030;25.108;2023-02-11T00:38:01;101231.59;;;-8.64;100.00
21960;BME280;11144;43.030;25.108;2023-02-11T00:39:35;101230.00;;;-8.62;100.00
21960;BME280;11144;43.030;25.108;2023-02-11T00:41:09;101227.56;;;-8.60;100.00
21960;BME280;11144;43.030;25.108;2023-02-11T00:42:42;101235.34;;;-8.59;100.00
21960;BME280;11144;43.030;25.108;2023-02-11T00:44:16;101234.66;;;-8.56;100.00
21960;BME280;11144;43.030;25.108;2023-02-11T00:45:51;101238.13;;;-8.56;100.00
21960;BME280;11144;43.030;25.108;2023-02-11T00:47:24;101228.00;;;-8.54;100.00
21960;BME280;11144;43.030;25.108;2023-02-11T00:48:59;101234.03;;;-8.54;100.00
21960;BME280;11144;43.030;25.108;2023-02-11T00:50:32;101235.56;;;-8.56;100.00
21960;BME280;11144;43.030;25.108;2023-02-11T00:52:05;101238.94;;;-8.57;100.00
21960;BME280;11144;43.030;25.108;2023-02-11T00:53:38;101235.03;;;-8.63;100.00
21960;BME280;11144;43.030;25.108;2023-02-11T00:55:11;101234.72;;;-8.68;100.00
21960;BME280;11144;43.030;25.108;2023-02-11T00:56:44;101225.16;;;-8.70;100.00
21960;BME280;11144;43.030;25.108;2023-02-11T00:58:17;101230.28;;;-8.70;100.00
21960;BME280;11144;43.030;25.108;2023-02-11T00:59:50;101226.81;;;-8.71;100.00
21960;BME280;11144;43.030;25.108;2023-02-11T01:01:23;101229.38;;;-8.71;100.00
21960;BME280;11144;43.030;25.108;2023-02-11T01:02:57;101231.94;;;-8.71;100.00
21960;BME280;11144;43.030;25.108;2023-02-11T01:04:31;101227.38;;;-8.75;100.00
21960;BME280;11144;43.030;25.108;2023-02-11T01:06:05;101214.06;;;-8.94;100.00
21960;BME280;11144;43.030;25.108;2023-02-11T01:07:41;101228.28;;;-8.86;100.00
21960;BME280;11144;43.030;25.108;2023-02-11T01:09:15;101217.59;;;-8.92;100.00
21960;BME280;11144;43.030;25.108;2023-02-11T01:10:53;101220.50;;;-8.99;100.00
21960;BME280;11144;43.030;25.108;2023-02-11T01:12:25;101224.09;;;-9.08;100.00
21960;BME280;11144;43.030;25.108;2023-02-11T01:14:01;101223.69;;;-9.14;100.00
21960;BME280;11144;43.030;25.108;2023-02-11T01:15:34;101218.66;;;-9.13;100.00
21960;BME280;11144;43.030;25.108;2023-02-11T01:17:08;101216.09;;;-9.13;100.00
21960;BME280;11144;43.030;25.108;2023-02-11T01:18:41;101221.97;;;-9.14;100.00
21960;BME280;11144;43.030;25.108;2023-02-11T01:20:19;101212.75;;;-9.12;100.00
21960;BME280;11144;43.030;25.108;2023-02-11T01:21:53;101224.53;;;-9.14;100.00
21960;BME280;11144;43.030;25.108;2023-02-11T01:23:26;101224.78;;;-9.11;100.00
21960;BME280;11144;43.030;25.108;2023-02-11T01:24:59;101231.66;;;-9.10;100.00
21960;BME280;11144;43.030;25.108;2023-02-11T01:26:33;101212.19;;;-9.08;100.00
21960;BME280;11144;43.030;25.108;2023-02-11T01:28:09;101223.63;;;-9.03;100.00
21960;BME280;11144;43.030;25.108;2023-02-11T01:29:43;101219.66;;;-8.99;100.00
21960;BME280;11144;43.030;25.108;2023-02-11T01:31:17;101227.63;;;-8.95;100.00
21960;BME280;11144;43.030;25.108;2023-02-11T01:32:50;101212.25;;;-8.95;100.00
21960;BME280;11144;43.030;25.108;2023-02-11T01:34:23;101211.50;;;-8.94;100.00
21960;BME280;11144;43.030;25.108;2023-02-11T01:36:01;101219.19;;;-8.94;100.00
21960;BME280;11144;43.030;25.108;2023-02-11T01:37:35;101213.97;;;-8.95;100.00
21960;BME280;11144;43.030;25.108;2023-02-11T01:39:08;101210.50;;;-8.96;100.00
21960;BME280;11144;43.030;25.108;2023-02-11T01:40:46;101211.84;;;-9.01;100.00
21960;BME280;11144;43.030;25.108;2023-02-11T01:42:21;101224.78;;;-9.11;100.00
21960;BME280;11144;43.030;25.108;2023-02-11T01:43:54;101208.88;;;-9.30;100.00
21960;BME280;11144;43.030;25.108;2023-02-11T01:46:00;101216.09;;;-9.36;100.00
21960;BME280;11144;43.030;25.108;2023-02-11T01:47:36;101205.88;;;-9.36;100.00
21960;BME280;11144;43.030;25.108;2023-02-11T01:49:11;101226.91;;;-9.40;100.00
21960;BME280;11144;43.030;25.108;2023-02-11T01:50:49;101201.88;;;-9.32;100.00
21960;BME280;11144;43.030;25.108;2023-02-11T01:52:26;101197.63;;;-9.32;100.00
21960;BME280;11144;43.030;25.108;2023-02-11T01:54:01;101202.97;;;-9.29;100.00
21960;BME280;11144;43.030;25.108;2023-02-11T01:55:53;101191.97;;;-9.39;100.00
21960;BME280;11144;43.030;25.108;2023-02-11T01:57:49;101202.50;;;-9.23;100.00
21960;BME280;11144;43.030;25.108;2023-02-11T01:59:28;101203.19;;;-9.26;100.00
21960;BME280;11144;43.030;25.108;2023-02-11T02:01:02;101203.97;;;-9.27;100.00
21960;BME280;11144;43.030;25.108;2023-02-11T02:02:42;101194.72;;;-9.25;100.00
21960;BME280;11144;43.030;25.108;2023-02-11T02:04:17;101196.53;;;-9.24;100.00
21960;BME280;11144;43.030;25.108;2023-02-11T02:05:54;101194.72;;;-9.25;100.00
21960;BME280;11144;43.030;25.108;2023-02-11T02:07:37;101204.97;;;-9.25;100.00
21960;BME280;11144;43.030;25.108;2023-02-11T02:09:16;101190.28;;;-9.27;100.00
21960;BME280;11144;43.030;25.108;2023-02-11T02:10:53;101196.53;;;-9.24;100.00
21960;BME280;11144;43.030;25.108;2023-02-11T02:12:27;101197.50;;;-9.22;100.00
21960;BME280;11144;43.030;25.108;2023-02-11T02:14:00;101190.75;;;-9.21;100.00
21960;BME280;11144;43.030;25.108;2023-02-11T02:15:34;101187.84;;;-9.26;100.00
21960;BME280;11144;43.030;25.108;2023-02-11T02:17:17;101185.38;;;-9.36;100.00
21960;BME280;11144;43.030;25.108;2023-02-11T02:18:59;101186.75;;;-9.41;100.00
21960;BME280;11144;43.030;25.108;2023-02-11T02:22:55;101198.75;;;-9.40;100.00
21960;BME280;11144;43.030;25.108;2023-02-11T02:24:54;101198.75;;;-9.40;100.00
21960;BME280;11144;43.030;25.108;2023-02-11T02:27:00;101194.53;;;-9.39;100.00
21960;BME280;11144;43.030;25.108;2023-02-11T02:28:59;101191.16;;;-9.50;100.00
21960;BME280;11144;43.030;25.108;2023-02-11T02:32:59;101199.88;;;-9.71;100.00
21960;BME280;11144;43.030;25.108;2023-02-11T02:34:57;101201.19;;;-9.76;100.00
21960;BME280;11144;43.030;25.108;2023-02-11T02:36:36;101201.19;;;-9.76;100.00
21960;BME280;11144;43.030;25.108;2023-02-11T02:38:18;101205.22;;;-9.68;100.00
21960;BME280;11144;43.030;25.108;2023-02-11T02:39:54;101198.53;;;-9.66;100.00
21960;BME280;11144;43.030;25.108;2023-02-11T02:41:30;101201.88;;;-9.67;100.00
21960;BME280;11144;43.030;25.108;2023-02-11T02:43:05;101202.34;;;-9.61;100.00
21960;BME280;11144;43.030;25.108;2023-02-11T02:44:47;101207.44;;;-9.61;100.00
21960;BME280;11144;43.030;25.108;2023-02-11T02:46:22;101209.22;;;-9.60;100.00
21960;BME280;11144;43.030;25.108;2023-02-11T02:47:56;101209.44;;;-9.57;100.00
21960;BME280;11144;43.030;25.108;2023-02-11T02:49:30;101209.63;;;-9.54;100.00
21960;BME280;11144;43.030;25.108;2023-02-11T02:51:14;101205.66;;;-9.50;100.00
21960;BME280;11144;43.030;25.108;2023-02-11T02:52:54;101211.75;;;-9.48;100.00
21960;BME280;11144;43.030;25.108;2023-02-11T02:54:54;101209.88;;;-9.51;100.00
21960;BME280;11144;43.030;25.108;2023-02-11T02:56:39;101209.44;;;-9.57;100.00
21960;BME280;11144;43.030;25.108;2023-02-11T02:58:44;101204.09;;;-9.60;100.00
21960;BME280;11144;43.030;25.108;2023-02-11T03:00:24;101203.63;;;-9.66;100.00
21960;BME280;11144;43.030;25.108;2023-02-11T03:02:07;101202.53;;;-9.69;100.00
21960;BME280;11144;43.030;25.108;2023-02-11T03:03:49;101207.88;;;-9.78;100.00
21960;BME280;11144;43.030;25.108;2023-02-11T03:05:30;101205.63;;;-9.85;100.00
21960;BME280;11144;43.030;25.108;2023-02-11T03:07:09;101201.38;;;-9.96;100.00
21960;BME280;11144;43.030;25.108;2023-02-11T03:08:52;101198.34;;;-10.02;100.00
21960;BME280;11144;43.030;25.108;2023-02-11T03:10:29;101205.16;;;-10.14;100.00
21960;BME280;11144;43.030;25.108;2023-02-11T03:12:05;101201.81;;;-10.13;100.00
21960;BME280;11144;43.030;25.108;2023-02-11T03:13:39;101198.94;;;-10.06;100.00
21960;BME280;11144;43.030;25.108;2023-02-11T03:15:15;101202.47;;;-10.04;100.00
21960;BME280;11144;43.030;25.108;2023-02-11T03:16:49;101206.03;;;-10.02;100.00
21960;BME280;11144;43.030;25.108;2023-02-11T03:18:26;101204.59;;;-9.98;100.00
21960;BME280;11144;43.030;25.108;2023-02-11T03:20:02;101201.16;;;-9.99;100.00
21960;BME280;11144;43.030;25.108;2023-02-11T03:21:38;101206.50;;;-9.96;100.00
21960;BME280;11144;43.030;25.108;2023-02-11T03:23:15;101178.06;;;-10.12;100.00
21960;BME280;11144;43.030;25.108;2023-02-11T03:24:50;101207.50;;;-9.94;100.00
21960;BME280;11144;43.030;25.108;2023-02-11T03:26:27;101203.16;;;-9.95;100.00
21960;BME280;11144;43.030;25.108;2023-02-11T03:28:05;101204.97;;;-9.94;100.00
21960;BME280;11144;43.030;25.108;2023-02-11T03:29:44;101210.81;;;-9.95;100.00
21960;BME280;11144;43.030;25.108;2023-02-11T03:31:26;101209.59;;;-10.00;100.00
21960;BME280;11144;43.030;25.108;2023-02-11T03:33:06;101202.06;;;-9.98;100.00
21960;BME280;11144;43.030;25.108;2023-02-11T03:34:44;101204.84;;;-9.95;100.00
21960;BME280;11144;43.030;25.108;2023-02-11T03:36:24;101204.97;;;-9.94;100.00
21960;BME280;11144;43.030;25.108;2023-02-11T03:38:01;101208.25;;;-9.95;100.00
21960;BME280;11144;43.030;25.108;2023-02-11T03:39:39;101212.03;;;-10.01;100.00
21960;BME280;11144;43.030;25.108;2023-02-11T03:41:13;101203.81;;;-10.09;100.00
21960;BME280;11144;43.030;25.108;2023-02-11T03:42:50;101202.13;;;-10.20;100.00
21960;BME280;11144;43.030;25.108;2023-02-11T03:44:30;101202.91;;;-10.21;100.00
21960;BME280;11144;43.030;25.108;2023-02-11T03:46:04;101199.81;;;-10.17;100.00
21960;BME280;11144;43.030;25.108;2023-02-11T03:47:40;101203.38;;;-10.15;100.00
21960;BME280;11144;43.030;25.108;2023-02-11T03:49:18;101197.16;;;-10.07;100.00
21960;BME280;11144;43.030;25.108;2023-02-11T03:50:53;101206.03;;;-10.02;100.00
21960;BME280;11144;43.030;25.108;2023-02-11T03:52:28;101202.47;;;-10.04;100.00
21960;BME280;11144;43.030;25.108;2023-02-11T03:54:05;101201.94;;;-10.00;100.00
21960;BME280;11144;43.030;25.108;2023-02-11T03:55:41;101201.38;;;-9.96;100.00
21960;BME280;11144;43.030;25.108;2023-02-11T03:57:15;101192.94;;;-9.95;100.00
21960;BME280;11144;43.030;25.108;2023-02-11T03:58:49;101203.38;;;-9.92;100.00
21960;BME280;11144;43.030;25.108;2023-02-11T04:00:28;101203.28;;;-9.93;100.00
21960;BME280;11144;43.030;25.108;2023-02-11T04:02:02;101207.50;;;-9.94;100.00
21960;BME280;11144;43.030;25.108;2023-02-11T04:03:35;101197.72;;;-9.88;100.00
21960;BME280;11144;43.030;25.108;2023-02-11T04:05:14;101199.50;;;-9.87;100.00
21960;BME280;11144;43.030;25.108;2023-02-11T04:06:48;101203.50;;;-9.90;100.00
21960;BME280;11144;43.030;25.108;2023-02-11T04:08:21;101198.63;;;-9.87;100.00
21960;BME280;11144;43.030;25.108;2023-02-11T04:09:54;101208.50;;;-9.92;100.00
21960;BME280;11144;43.030;25.108;2023-02-11T04:11:28;101190.13;;;-9.98;100.00
21960;BME280;11144;43.030;25.108;2023-02-11T04:13:01;101174.47;;;-10.14;100.00
21960;BME280;11144;43.030;25.108;2023-02-11T04:14:34;101202.72;;;-10.01;100.00
21960;BME280;11144;43.030;25.108;2023-02-11T04:16:08;101198.47;;;-10.00;100.00
21960;BME280;11144;43.030;25.108;2023-02-11T04:17:40;101203.81;;;-9.97;100.00
21960;BME280;11144;43.030;25.108;2023-02-11T04:19:13;101198.03;;;-9.95;100.00
21960;BME280;11144;43.030;25.108;2023-02-11T04:20:46;101203.38;;;-9.92;100.00
21960;BME280;11144;43.030;25.108;2023-02-11T04:22:19;101197.16;;;-9.95;100.00
21960;BME280;11144;43.030;25.108;2023-02-11T04:23:54;101197.81;;;-9.98;100.00
21960;BME280;11144;43.030;25.108;2023-02-11T04:25:28;101197.38;;;-10.04;100.00
21960;BME280;11144;43.030;25.108;2023-02-11T04:27:01;101193.25;;;-10.02;100.00
21960;BME280;11144;43.030;25.108;2023-02-11T04:28:34;101194.63;;;-10.07;100.00
21960;BME280;11144;43.030;25.108;2023-02-11T04:30:08;101196.94;;;-10.10;100.00
21960;BME280;11144;43.030;25.108;2023-02-11T04:31:41;101198.72;;;-10.09;100.00
21960;BME280;11144;43.030;25.108;2023-02-11T04:33:15;101202.84;;;-10.11;100.00
21960;BME280;11144;43.030;25.108;2023-02-11T04:34:48;101174.91;;;-10.31;100.00
21960;BME280;11144;43.030;25.108;2023-02-11T04:36:20;101191.59;;;-10.13;100.00
21960;BME280;11144;43.030;25.108;2023-02-11T04:37:53;101194.16;;;-10.13;100.00
21960;BME280;11144;43.030;25.108;2023-02-11T04:39:27;101199.38;;;-10.11;100.00
21960;BME280;11144;43.030;25.108;2023-02-11T04:41:00;101184.72;;;-10.14;100.00
21960;BME280;11144;43.030;25.108;2023-02-11T04:42:34;101185.84;;;-10.10;100.00
21960;BME280;11144;43.030;25.108;2023-02-11T04:44:07;101187.38;;;-10.12;100.00
21960;BME280;11144;43.030;25.108;2023-02-11T04:45:41;101187.50;;;-10.11;100.00
21960;BME280;11144;43.030;25.108;2023-02-11T04:47:13;101185.94;;;-10.09;100.00
21960;BME280;11144;43.030;25.108;2023-02-11T04:48:46;101171.38;;;-10.10;100.00
21960;BME280;11144;43.030;25.108;2023-02-11T04:50:18;101175.16;;;-10.05;100.00
21960;BME280;11144;43.030;25.108;2023-02-11T04:51:52;101169.38;;;-10.02;100.00
21960;BME280;11144;43.030;25.108;2023-02-11T04:53:25;101175.59;;;-9.99;100.00
21960;BME280;11144;43.030;25.108;2023-02-11T04:54:59;101164.38;;;-10.01;100.00
21960;BME280;11144;43.030;25.108;2023-02-11T04:56:32;101169.50;;;-10.01;100.00
21960;BME280;11144;43.030;25.108;2023-02-11T04:58:04;101169.38;;;-10.02;100.00
21960;BME280;11144;43.030;25.108;2023-02-11T04:59:37;101163.34;;;-10.03;100.00
21960;BME280;11144;43.030;25.108;2023-02-11T05:01:13;101167.16;;;-10.09;100.00
21960;BME280;11144;43.030;25.108;2023-02-11T05:02:45;101170.03;;;-10.05;100.00
21960;BME280;11144;43.030;25.108;2023-02-11T05:04:18;101178.25;;;-10.09;100.00
21960;BME280;11144;43.030;25.108;2023-02-11T05:05:52;101169.13;;;-10.17;100.00
21960;BME280;11144;43.030;25.108;2023-02-11T05:07:26;101163.78;;;-10.20;100.00
21960;BME280;11144;43.030;25.108;2023-02-11T05:08:59;101166.91;;;-10.24;100.00
21960;BME280;11144;43.030;25.108;2023-02-11T05:10:34;101168.47;;;-10.26;100.00
21960;BME280;11144;43.030;25.108;2023-02-11T05:12:06;101163.13;;;-10.29;100.00
21960;BME280;11144;43.030;25.108;2023-02-11T05:13:39;101171.31;;;-10.33;100.00
21960;BME280;11144;43.030;25.108;2023-02-11T05:15:12;101160.63;;;-10.39;100.00
21960;BME280;11144;43.030;25.108;2023-02-11T05:16:45;101167.06;;;-10.44;100.00
21960;BME280;11144;43.030;25.108;2023-02-11T05:18:19;101160.44;;;-10.42;100.00
21960;BME280;11144;43.030;25.108;2023-02-11T05:19:51;101161.41;;;-10.40;100.00
21960;BME280;11144;43.030;25.108;2023-02-11T05:21:24;101153.53;;;-10.43;100.00
21960;BME280;11144;43.030;25.108;2023-02-11T05:22:58;101159.09;;;-10.37;100.00
21960;BME280;11144;43.030;25.108;2023-02-11T05:24:31;101161.66;;;-10.37;100.00
21960;BME280;11144;43.030;25.108;2023-02-11T05:26:06;101157.09;;;-10.41;100.00
21960;BME280;11144;43.030;25.108;2023-02-11T05:27:40;101154.84;;;-10.48;100.00
21960;BME280;11144;43.030;25.108;2023-02-11T05:29:13;101156.81;;;-10.55;100.00
21960;BME280;11144;43.030;25.108;2023-02-11T05:30:46;101161.03;;;-10.56;100.00
21960;BME280;11144;43.030;25.108;2023-02-11T05:32:19;101162.56;;;-10.58;100.00
21960;BME280;11144;43.030;25.108;2023-02-11T05:33:53;101155.31;;;-10.75;100.00
21960;BME280;11144;43.030;25.108;2023-02-11T05:35:27;101157.38;;;-10.81;100.00
21960;BME280;11144;43.030;25.108;2023-02-11T05:36:59;101160.19;;;-10.78;100.00
21960;BME280;11144;43.030;25.108;2023-02-11T05:38:32;101159.66;;;-10.74;100.00
21960;BME280;11144;43.030;25.108;2023-02-11T05:40:05;101157.22;;;-10.72;100.00
21960;BME280;11144;43.030;25.108;2023-02-11T05:41:40;101160.88;;;-10.69;100.00
21960;BME280;11144;43.030;25.108;2023-02-11T05:43:13;101153.94;;;-10.60;100.00
21960;BME280;11144;43.030;25.108;2023-02-11T05:44:46;101162.81;;;-10.55;100.00
21960;BME280;11144;43.030;25.108;2023-02-11T05:46:21;101164.41;;;-10.45;100.00
21960;BME280;11144;43.030;25.108;2023-02-11T05:47:54;101162.44;;;-10.38;100.00
21960;BME280;11144;43.030;25.108;2023-02-11T05:49:28;101160.88;;;-10.36;100.00
21960;BME280;11144;43.030;25.108;2023-02-11T05:51:01;101164.44;;;-10.34;100.00
21960;BME280;11144;43.030;25.108;2023-02-11T05:52:39;101163.22;;;-10.27;100.00
21960;BME280;11144;43.030;25.108;2023-02-11T05:54:13;101168.91;;;-10.20;100.00
21960;BME280;11144;43.030;25.108;2023-02-11T05:55:46;101170.16;;;-10.15;100.00
21960;BME280;11144;43.030;25.108;2023-02-11T05:57:21;101174.72;;;-10.11;100.00
21960;BME280;11144;43.030;25.108;2023-02-11T05:58:54;101169.84;;;-10.08;100.00
21960;BME280;11144;43.030;25.108;2023-02-11T06:00:28;101166.69;;;-10.04;100.00
21960;BME280;11144;43.030;25.108;2023-02-11T06:02:01;101170.34;;;-10.00;100.00
21960;BME280;11144;43.030;25.108;2023-02-11T06:03:34;101191.94;;;-9.97;100.00
21960;BME280;11144;43.030;25.108;2023-02-11T06:05:08;101170.16;;;-9.92;100.00
21960;BME280;11144;43.030;25.108;2023-02-11T06:06:41;101174.94;;;-9.85;100.00
21960;BME280;11144;43.030;25.108;2023-02-11T06:08:14;101180.50;;;-9.79;100.00
21960;BME280;11144;43.030;25.108;2023-02-11T06:09:48;101168.94;;;-9.74;100.00
21960;BME280;11144;43.030;25.108;2023-02-11T06:11:21;101177.41;;;-9.75;100.00
21960;BME280;11144;43.030;25.108;2023-02-11T06:12:56;101172.53;;;-9.72;100.00
21960;BME280;11144;43.030;25.108;2023-02-11T06:14:31;101171.50;;;-9.74;100.00
21960;BME280;11144;43.030;25.108;2023-02-11T06:16:04;101177.84;;;-9.69;100.00
21960;BME280;11144;43.030;25.108;2023-02-11T06:17:38;101172.53;;;-9.72;100.00
21960;BME280;11144;43.030;25.108;2023-02-11T06:19:12;101168.50;;;-9.68;100.00
21960;BME280;11144;43.030;25.108;2023-02-11T06:20:45;101155.16;;;-9.64;100.00
21960;BME280;11144;43.030;25.108;2023-02-11T06:22:18;101164.50;;;-9.53;100.00
21960;BME280;11144;43.030;25.108;2023-02-11T06:23:51;101159.72;;;-9.49;100.00
21960;BME280;11144;43.030;25.108;2023-02-11T06:25:25;101156.59;;;-9.45;100.00
21960;BME280;11144;43.030;25.108;2023-02-11T06:26:58;101163.59;;;-9.31;100.00
21960;BME280;11144;43.030;25.108;2023-02-11T06:28:32;101158.91;;;-9.25;100.00
21960;BME280;11144;43.030;25.108;2023-02-11T06:30:07;101169.81;;;-9.16;100.00
21960;BME280;11144;43.030;25.108;2023-02-11T06:31:41;101165.09;;;-9.10;100.00
21960;BME280;11144;43.030;25.108;2023-02-11T06:33:14;101162.19;;;-9.03;100.00
21960;BME280;11144;43.030;25.108;2023-02-11T06:34:48;101161.03;;;-8.95;100.00
21960;BME280;11144;43.030;25.108;2023-02-11T06:36:21;101168.50;;;-8.86;100.00
21960;BME280;11144;43.030;25.108;2023-02-11T06:37:55;101181.28;;;-8.75;100.00
21960;BME280;11144;43.030;25.108;2023-02-11T06:39:28;101170.66;;;-8.68;100.00
21960;BME280;11144;43.030;25.108;2023-02-11T06:41:01;101171.28;;;-8.59;100.00
21960;BME280;11144;43.030;25.108;2023-02-11T06:42:35;101174.84;;;-8.57;100.00
21960;BME280;11144;43.030;25.108;2023-02-11T06:44:11;101179.63;;;-8.50;100.00
21960;BME280;11144;43.030;25.108;2023-02-11T06:45:44;101170.66;;;-8.43;100.00
21960;BME280;11144;43.030;25.108;2023-02-11T06:47:17;101178.09;;;-8.35;100.00
21960;BME280;11144;43.030;25.108;2023-02-11T06:48:50;101169.47;;;-8.24;100.00
21960;BME280;11144;43.030;25.108;2023-02-11T06:50:24;101175.13;;;-7.90;100.00
21960;BME280;11144;43.030;25.108;2023-02-11T06:51:57;101171.31;;;-7.45;100.00
21960;BME280;11144;43.030;25.108;2023-02-11T06:53:30;101181.72;;;-6.89;100.00
21960;BME280;11144;43.030;25.108;2023-02-11T06:55:04;101185.13;;;-6.35;100.00
21960;BME280;11144;43.030;25.108;2023-02-11T06:56:38;101186.44;;;-5.85;100.00
21960;BME280;11144;43.030;25.108;2023-02-11T06:58:12;101183.19;;;-5.38;100.00
21960;BME280;11144;43.030;25.108;2023-02-11T06:59:46;101184.69;;;-4.96;100.00
21960;BME280;11144;43.030;25.108;2023-02-11T07:01:18;101189.38;;;-4.59;100.00
21960;BME280;11144;43.030;25.108;2023-02-11T07:02:52;101180.34;;;-4.19;100.00
21960;BME280;11144;43.030;25.108;2023-02-11T07:04:25;101169.09;;;-3.87;100.00
21960;BME280;11144;43.030;25.108;2023-02-11T07:05:58;101180.00;;;-3.59;100.00
21960;BME280;11144;43.030;25.108;2023-02-11T07:07:32;101180.19;;;-3.21;100.00
21960;BME280;11144;43.030;25.108;2023-02-11T07:09:06;101180.38;;;-2.81;100.00
21960;BME280;11144;43.030;25.108;2023-02-11T07:10:39;101175.22;;;-2.45;100.00
21960;BME280;11144;43.030;25.108;2023-02-11T07:12:13;101182.75;;;-2.11;100.00
21960;BME280;11144;43.030;25.108;2023-02-11T07:13:46;101179.94;;;-1.78;100.00
21960;BME280;11144;43.030;25.108;2023-02-11T07:15:21;101173.13;;;-1.55;100.00
21960;BME280;11144;43.030;25.108;2023-02-11T07:16:54;101181.22;;;-1.27;100.00
21960;BME280;11144;43.030;25.108;2023-02-11T07:18:26;101177.78;;;-1.06;100.00
21960;BME280;11144;43.030;25.108;2023-02-11T07:20:00;101178.91;;;-0.79;100.00
21960;BME280;11144;43.030;25.108;2023-02-11T07:21:33;101181.50;;;-0.57;100.00
21960;BME280;11144;43.030;25.108;2023-02-11T07:23:06;101170.44;;;-0.29;100.00
21960;BME280;11144;43.030;25.108;2023-02-11T07:24:39;101184.84;;;0.10;100.00
21960;BME280;11144;43.030;25.108;2023-02-11T07:26:16;101170.91;;;0.32;100.00
21960;BME280;11144;43.030;25.108;2023-02-11T07:27:49;101179.84;;;0.40;100.00
21960;BME280;11144;43.030;25.108;2023-02-11T07:29:22;101174.94;;;0.49;100.00
21960;BME280;11144;43.030;25.108;2023-02-11T07:30:57;101172.19;;;0.44;100.00
21960;BME280;11144;43.030;25.108;2023-02-11T07:32:29;101171.66;;;0.54;100.00
21960;BME280;11144;43.030;25.108;2023-02-11T07:34:03;101169.34;;;0.62;100.00
21960;BME280;11144;43.030;25.108;2023-02-11T07:35:36;101167.66;;;0.64;100.00
21960;BME280;11144;43.030;25.108;2023-02-11T07:37:12;101174.09;;;0.75;100.00
21960;BME280;11144;43.030;25.108;2023-02-11T07:38:46;101172.94;;;0.92;100.00
21960;BME280;11144;43.030;25.108;2023-02-11T07:40:19;101173.81;;;1.19;100.00
21960;BME280;11144;43.030;25.108;2023-02-11T07:41:53;101174.03;;;1.54;100.00
21960;BME280;11144;43.030;25.108;2023-02-11T07:43:26;101177.69;;;1.59;100.00
21960;BME280;11144;43.030;25.108;2023-02-11T07:45:00;101160.47;;;1.94;100.00
21960;BME280;11144;43.030;25.108;2023-02-11T07:46:35;101164.72;;;2.23;100.00
21960;BME280;11144;43.030;25.108;2023-02-11T07:48:08;101160.00;;;2.41;100.00
21960;BME280;11144;43.030;25.108;2023-02-11T07:49:41;101170.78;;;2.53;100.00
21960;BME280;11144;43.030;25.108;2023-02-11T07:51:16;101168.41;;;2.62;100.00
21960;BME280;11144;43.030;25.108;2023-02-11T07:52:50;101161.94;;;2.82;100.00
21960;BME280;11144;43.030;25.108;2023-02-11T07:54:23;101171.69;;;2.89;100.00
21960;BME280;11144;43.030;25.108;2023-02-11T07:55:56;101160.47;;;2.93;100.00
21960;BME280;11144;43.030;25.108;2023-02-11T07:57:29;101168.47;;;2.99;100.00
21960;BME280;11144;43.030;25.108;2023-02-11T07:59:03;101165.44;;;3.18;100.00
21960;BME280;11144;43.030;25.108;2023-02-11T08:00:36;101158.28;;;3.48;100.00
21960;BME280;11144;43.030;25.108;2023-02-11T08:02:11;101159.97;;;3.44;100.00
21960;BME280;11144;43.030;25.108;2023-02-11T08:03:44;101153.03;;;3.46;100.00
21960;BME280;11144;43.030;25.108;2023-02-11T08:05:18;101159.41;;;3.59;100.00
21960;BME280;11144;43.030;25.108;2023-02-11T08:06:51;101157.75;;;3.63;100.00
21960;BME280;11144;43.030;25.108;2023-02-11T08:08:29;101150.97;;;3.72;100.00